createdAt,value
2023-02-09T00:01:47.408Z,5.50
2023-02-09T00:04:15.509Z,6.47
2023-02-09T00:06:44.531Z,5.23
2023-02-09T00:09:12.164Z,5.20
2023-02-09T00:11:57.441Z,5.17
2023-02-09T00:14:25.198Z,5.57
2023-02-09T00:16:53.034Z,6.20
2023-02-09T00:19:21.843Z,5.13
2023-02-09T00:21:50.829Z,5.43
2023-02-09T00:24:18.692Z,5.03
2023-02-09T00:26:46.613Z,5.70
2023-02-09T00:29:14.696Z,5.37
2023-02-09T00:31:42.399Z,5.93
2023-02-09T00:34:11.036Z,5.43
2023-02-09T00:36:38.677Z,5.97
2023-02-09T00:39:07.854Z,5.30
2023-02-09T00:41:52.905Z,6.23
2023-02-09T00:44:20.621Z,6.00
2023-02-09T00:46:48.964Z,5.20
2023-02-09T00:49:16.871Z,5.83
2023-02-09T00:51:44.559Z,5.97
2023-02-09T00:54:13.657Z,5.40
2023-02-09T00:56:41.340Z,5.87
2023-02-09T00:59:09.052Z,5.67
2023-02-09T01:01:37.028Z,5.70
2023-02-09T01:04:05.387Z,5.33
2023-02-09T01:06:33.224Z,5.20
2023-02-09T01:09:01.069Z,5.97
2023-02-09T01:11:30.424Z,5.70
2023-02-09T01:13:59.792Z,5.40
2023-02-09T01:16:30.393Z,5.57
2023-02-09T01:19:00.658Z,6.03
2023-02-09T01:21:28.412Z,6.17
2023-02-09T01:23:56.387Z,5.70
2023-02-09T01:26:24.285Z,6.13
2023-02-09T01:28:54.287Z,6.40
2023-02-09T01:31:25.838Z,5.77
2023-02-09T01:33:54.434Z,6.23
2023-02-09T01:36:22.446Z,6.57
2023-02-09T01:38:50.315Z,6.37
2023-02-09T01:41:18.382Z,6.10
2023-02-09T01:43:51.124Z,5.83
2023-02-09T01:46:20.227Z,5.87
2023-02-09T01:48:48.810Z,6.43
2023-02-09T01:51:16.612Z,6.27
2023-02-09T01:53:44.525Z,6.13
2023-02-09T01:56:15.028Z,5.70
2023-02-09T01:58:42.770Z,6.20
2023-02-09T02:01:10.587Z,6.73
2023-02-09T02:03:39.758Z,5.87
2023-02-09T02:06:10.771Z,6.27
2023-02-09T02:08:41.491Z,5.60
2023-02-09T02:11:10.165Z,6.70
2023-02-09T02:13:37.847Z,5.90
2023-02-09T02:16:09.998Z,6.40
2023-02-09T02:18:48.803Z,6.80
2023-02-09T02:21:52.811Z,6.57
2023-02-09T02:24:48.857Z,7.07
2023-02-09T02:27:26.019Z,5.83
2023-02-09T02:30:04.632Z,6.77
2023-02-09T02:32:43.271Z,6.53
2023-02-09T02:35:16.843Z,6.70
2023-02-09T02:37:53.486Z,6.80
2023-02-09T02:40:27.677Z,6.23
2023-02-09T02:42:58.633Z,5.73
2023-02-09T02:45:35.240Z,6.83
2023-02-09T02:48:11.678Z,6.87
2023-02-09T02:50:43.142Z,5.97
2023-02-09T02:53:12.003Z,7.47
2023-02-09T02:55:40.310Z,7.07
2023-02-09T02:58:10.552Z,6.60
2023-02-09T03:00:40.920Z,6.70
2023-02-09T03:03:13.957Z,5.97
2023-02-09T03:05:43.164Z,7.00
2023-02-09T03:08:10.847Z,8.23
2023-02-09T03:10:39.838Z,6.87
2023-02-09T03:13:31.548Z,6.60
2023-02-09T03:16:10.042Z,6.90
2023-02-09T03:18:45.208Z,7.87
2023-02-09T03:21:16.426Z,6.63
2023-02-09T03:23:48.605Z,7.07
2023-02-09T03:26:20.463Z,6.83
2023-02-09T03:28:50.148Z,7.73
2023-02-09T03:31:17.892Z,7.63
2023-02-09T03:33:47.115Z,6.93
2023-02-09T03:36:18.143Z,7.27
2023-02-09T03:38:46.030Z,6.80
2023-02-09T03:41:13.765Z,7.70
2023-02-09T03:43:59.024Z,6.83
2023-02-09T03:46:26.842Z,6.83
2023-02-09T03:48:55.971Z,7.87
2023-02-09T03:51:23.693Z,6.20
2023-02-09T03:53:51.431Z,7.53
2023-02-09T03:56:19.050Z,7.17
2023-02-09T03:58:46.750Z,7.27
2023-02-09T04:01:14.456Z,7.83
2023-02-09T04:03:42.131Z,7.73
2023-02-09T04:06:11.188Z,7.10
2023-02-09T04:08:39.007Z,6.33
2023-02-09T04:11:06.822Z,7.30
2023-02-09T04:13:34.476Z,7.13
2023-02-09T04:16:02.245Z,7.40
2023-02-09T04:18:29.899Z,7.50
2023-02-09T04:20:57.603Z,6.67
2023-02-09T04:23:26.595Z,7.13
2023-02-09T04:25:54.326Z,7.77
2023-02-09T04:28:22.078Z,6.47
2023-02-09T04:30:53.096Z,6.90
2023-02-09T04:33:20.890Z,7.10
2023-02-09T04:35:49.003Z,7.10
2023-02-09T04:38:19.442Z,7.30
2023-02-09T04:40:49.626Z,8.03
2023-02-09T04:43:17.743Z,6.83
2023-02-09T04:45:45.582Z,7.50
2023-02-09T04:48:15.625Z,7.83
2023-02-09T04:50:43.868Z,6.87
2023-02-09T04:53:12.122Z,7.57
2023-02-09T04:55:39.994Z,7.23
2023-02-09T04:58:27.926Z,6.97
2023-02-09T05:00:56.187Z,7.07
2023-02-09T05:03:24.796Z,7.67
2023-02-09T05:05:55.807Z,7.80
2023-02-09T05:08:23.763Z,6.87
2023-02-09T05:10:51.994Z,6.50
2023-02-09T05:13:21.717Z,7.83
2023-02-09T05:15:50.026Z,7.43
2023-02-09T05:18:18.331Z,8.37
2023-02-09T05:20:46.622Z,7.47
2023-02-09T05:23:15.036Z,7.40
2023-02-09T05:25:43.055Z,7.73
2023-02-09T05:28:10.823Z,7.23
2023-02-09T05:30:39.970Z,7.40
2023-02-09T05:33:07.676Z,7.20
2023-02-09T05:35:36.091Z,7.03
2023-02-09T05:38:04.075Z,7.57
2023-02-09T05:40:31.747Z,7.47
2023-02-09T05:43:00.324Z,8.47
2023-02-09T05:45:28.131Z,7.80
2023-02-09T05:47:57.264Z,7.87
2023-02-09T05:50:25.021Z,6.83
2023-02-09T05:52:52.663Z,8.10
2023-02-09T05:55:20.393Z,7.70
2023-02-09T05:57:48.030Z,7.50
2023-02-09T06:00:16.755Z,7.63
2023-02-09T06:02:44.509Z,8.03
2023-02-09T06:05:13.554Z,7.47
2023-02-09T06:07:41.258Z,8.27
2023-02-09T06:10:09.434Z,7.40
2023-02-09T06:12:37.158Z,7.73
2023-02-09T06:15:05.608Z,8.47
2023-02-09T06:17:33.443Z,8.00
2023-02-09T06:20:01.082Z,7.27
2023-02-09T06:22:31.722Z,8.07
2023-02-09T06:24:59.515Z,7.23
2023-02-09T06:27:27.405Z,7.63
2023-02-09T06:29:55.108Z,8.40
2023-02-09T06:32:22.775Z,7.53
2023-02-09T06:34:50.400Z,7.57
2023-02-09T06:37:18.083Z,8.00
2023-02-09T06:39:47.209Z,7.73
2023-02-09T06:42:15.109Z,7.77
2023-02-09T06:44:42.856Z,8.33
2023-02-09T06:47:10.549Z,8.63
2023-02-09T06:49:38.239Z,7.57
2023-02-09T06:52:06.658Z,8.33
2023-02-09T06:54:34.360Z,7.30
2023-02-09T06:57:03.351Z,8.40
2023-02-09T06:59:31.015Z,8.13
2023-02-09T07:01:58.758Z,8.40
2023-02-09T07:04:26.502Z,8.53
2023-02-09T07:06:54.185Z,8.07
2023-02-09T07:09:21.896Z,8.07
2023-02-09T07:11:49.589Z,7.93
2023-02-09T07:14:18.684Z,8.93
2023-02-09T07:16:46.327Z,7.83
2023-02-09T07:19:14.196Z,8.03
2023-02-09T07:21:41.903Z,7.73
2023-02-09T07:24:09.614Z,8.20
2023-02-09T07:26:37.287Z,8.57
2023-02-09T07:29:04.967Z,8.03
2023-02-09T07:31:34.167Z,7.87
2023-02-09T07:34:01.999Z,9.20
2023-02-09T07:36:29.836Z,7.63
2023-02-09T07:38:57.903Z,7.53
2023-02-09T07:41:26.177Z,8.63
2023-02-09T07:43:53.935Z,8.33
2023-02-09T07:46:23.204Z,8.47
2023-02-09T07:48:52.237Z,8.10
2023-02-09T07:51:25.243Z,9.17
2023-02-09T07:53:53.515Z,7.60
2023-02-09T07:56:21.340Z,8.63
2023-02-09T07:58:49.292Z,9.43
2023-02-09T08:01:17.893Z,8.63
2023-02-09T08:03:46.891Z,8.63
2023-02-09T08:06:19.779Z,7.97
2023-02-09T08:08:48.447Z,8.17
2023-02-09T08:11:17.211Z,9.07
2023-02-09T08:13:45.008Z,9.07
2023-02-09T08:16:14.351Z,8.27
2023-02-09T08:18:45.170Z,8.50
2023-02-09T08:21:14.597Z,8.93
2023-02-09T08:23:45.428Z,8.47
2023-02-09T08:26:14.660Z,8.30
2023-02-09T08:28:44.907Z,8.07
2023-02-09T08:31:13.654Z,8.93
2023-02-09T08:33:41.507Z,8.27
2023-02-09T08:36:09.784Z,8.17
2023-02-09T08:38:37.517Z,8.30
2023-02-09T08:41:08.166Z,9.70
2023-02-09T08:43:36.365Z,9.33
2023-02-09T08:46:05.355Z,9.10
2023-02-09T08:48:35.690Z,8.93
2023-02-09T08:51:03.710Z,8.27
2023-02-09T08:53:31.534Z,8.50
2023-02-09T08:55:59.310Z,9.53
2023-02-09T08:58:30.212Z,9.30
2023-02-09T09:00:59.930Z,9.13
2023-02-09T09:03:31.313Z,8.60
2023-02-09T09:05:59.597Z,8.77
2023-02-09T09:08:27.566Z,9.40
2023-02-09T09:10:55.471Z,8.93
2023-02-09T09:13:24.875Z,9.47
2023-02-09T09:15:55.156Z,9.53
2023-02-09T09:18:24.070Z,9.20
2023-02-09T09:20:53.332Z,9.50
2023-02-09T09:23:21.605Z,8.57
2023-02-09T09:25:49.466Z,9.30
2023-02-09T09:28:17.627Z,9.10
2023-02-09T09:30:45.427Z,8.43
2023-02-09T09:33:14.522Z,9.43
2023-02-09T09:35:42.306Z,8.93
2023-02-09T09:38:09.971Z,9.53
2023-02-09T09:40:40.482Z,9.80
2023-02-09T09:43:15.065Z,9.93
2023-02-09T09:45:43.003Z,9.47
2023-02-09T09:48:23.078Z,9.27
2023-02-09T09:50:52.236Z,9.30
2023-02-09T09:53:28.647Z,9.70
2023-02-09T09:55:59.297Z,8.63
2023-02-09T09:58:28.830Z,10.27
2023-02-09T10:00:56.567Z,9.40
2023-02-09T10:03:35.321Z,8.87
2023-02-09T10:06:13.899Z,9.93
2023-02-09T10:08:45.158Z,9.73
2023-02-09T10:11:14.848Z,9.70
2023-02-09T10:13:44.977Z,9.37
2023-02-09T10:16:17.260Z,10.47
2023-02-09T10:18:46.602Z,9.07
2023-02-09T10:21:16.094Z,8.33
2023-02-09T10:23:45.824Z,9.17
2023-02-09T10:26:24.628Z,9.50
2023-02-09T10:28:54.339Z,10.53
2023-02-09T10:31:25.475Z,9.10
2023-02-09T10:33:58.239Z,9.87
2023-02-09T10:36:32.332Z,9.40
2023-02-09T10:39:15.387Z,9.40
2023-02-09T10:41:44.776Z,9.23
2023-02-09T10:44:19.494Z,9.93
2023-02-09T10:46:48.090Z,9.53
2023-02-09T10:49:31.450Z,9.77
2023-02-09T10:52:16.826Z,9.40
2023-02-09T10:54:45.975Z,10.00
2023-02-09T10:57:28.629Z,10.00
2023-02-09T10:59:58.302Z,9.23
2023-02-09T11:02:33.731Z,8.80
2023-02-09T11:05:02.928Z,10.00
2023-02-09T11:07:34.551Z,9.77
2023-02-09T11:10:03.510Z,10.00
2023-02-09T11:12:31.235Z,9.23
2023-02-09T11:14:58.941Z,10.10
2023-02-09T11:17:28.159Z,9.13
2023-02-09T11:20:15.504Z,10.20
2023-02-09T11:23:03.863Z,9.23
2023-02-09T11:25:34.454Z,9.47
2023-02-09T11:28:22.861Z,9.60
2023-02-09T11:31:16.777Z,9.97
2023-02-09T11:33:53.363Z,9.73
2023-02-09T11:36:37.460Z,8.97
2023-02-09T11:39:09.467Z,9.87
2023-02-09T11:41:57.580Z,9.77
2023-02-09T11:44:31.190Z,8.97
2023-02-09T11:47:02.802Z,10.27
2023-02-09T11:49:31.016Z,10.10
2023-02-09T11:52:00.718Z,9.10
2023-02-09T11:54:31.411Z,9.23
2023-02-09T11:57:02.159Z,9.67
2023-02-09T11:59:33.804Z,10.37
2023-02-09T12:02:08.397Z,9.87
2023-02-09T12:04:43.596Z,11.07
2023-02-09T12:07:17.291Z,10.53
2023-02-09T12:09:48.161Z,10.37
2023-02-09T12:12:23.367Z,11.10
2023-02-09T12:15:09.956Z,10.83
2023-02-09T12:17:42.741Z,12.33
2023-02-09T12:20:31.365Z,11.70
2023-02-09T12:23:07.794Z,11.63
2023-02-09T12:25:54.556Z,12.50
2023-02-09T12:28:47.364Z,12.77
2023-02-09T12:31:24.306Z,12.93
2023-02-09T12:34:15.799Z,12.33
2023-02-09T12:37:18.022Z,12.53
2023-02-09T12:40:29.912Z,14.33
2023-02-09T12:43:30.342Z,12.73
2023-02-09T12:46:21.015Z,12.77
2023-02-09T12:48:54.895Z,13.67
2023-02-09T12:51:40.346Z,15.10
2023-02-09T12:54:32.872Z,14.60
2023-02-09T12:57:33.747Z,14.40
2023-02-09T13:00:31.076Z,14.80
2023-02-09T13:03:11.441Z,14.70
2023-02-09T13:05:44.576Z,12.90
2023-02-09T13:08:25.556Z,14.23
2023-02-09T13:10:57.736Z,13.37
2023-02-09T13:13:34.320Z,13.40
2023-02-09T13:16:41.607Z,12.17
2023-02-09T13:19:18.182Z,13.53
2023-02-09T13:21:57.733Z,12.60
2023-02-09T13:24:36.545Z,12.37
2023-02-09T13:27:04.755Z,12.27
2023-02-09T13:29:33.245Z,11.93
2023-02-09T13:32:08.282Z,12.70
2023-02-09T13:34:39.368Z,11.90
2023-02-09T13:37:15.415Z,11.67
2023-02-09T13:39:44.138Z,10.97
2023-02-09T13:42:20.106Z,10.80
2023-02-09T13:44:51.614Z,11.43
2023-02-09T13:47:21.042Z,11.50
2023-02-09T13:50:00.077Z,10.93
2023-02-09T13:52:28.803Z,11.13
2023-02-09T13:54:56.426Z,11.50
2023-02-09T13:57:33.169Z,11.80
2023-02-09T14:00:08.648Z,11.50
2023-02-09T14:02:38.166Z,11.03
2023-02-09T14:05:07.631Z,11.20
2023-02-09T14:07:37.772Z,11.17
2023-02-09T14:10:12.301Z,11.00
2023-02-09T14:12:52.034Z,11.40
2023-02-09T14:15:38.674Z,11.57
2023-02-09T14:18:23.399Z,11.70
2023-02-09T14:21:19.581Z,11.37
2023-02-09T14:23:49.308Z,12.00
2023-02-09T14:26:23.693Z,12.27
2023-02-09T14:28:54.126Z,11.53
2023-02-09T14:31:23.823Z,11.50
2023-02-09T14:33:55.560Z,11.13
2023-02-09T14:36:25.942Z,11.90
2023-02-09T14:38:54.179Z,11.00
2023-02-09T14:41:29.818Z,11.50
2023-02-09T14:43:59.931Z,12.27
2023-02-09T14:46:27.723Z,11.17
2023-02-09T14:48:59.542Z,11.37
2023-02-09T14:51:28.633Z,11.53
2023-02-09T14:53:56.336Z,11.77
2023-02-09T14:56:25.873Z,11.97
2023-02-09T14:58:53.548Z,12.53
2023-02-09T15:01:21.308Z,11.93
2023-02-09T15:03:48.948Z,12.97
2023-02-09T15:06:18.160Z,12.00
2023-02-09T15:08:45.837Z,12.67
2023-02-09T15:11:42.191Z,12.30
2023-02-09T15:14:11.025Z,11.80
2023-02-09T15:16:38.754Z,11.90
2023-02-09T15:19:11.842Z,13.00
2023-02-09T15:21:40.904Z,12.73
2023-02-09T15:24:08.612Z,12.33
2023-02-09T15:26:37.517Z,12.20
2023-02-09T15:29:11.745Z,13.43
2023-02-09T15:31:39.494Z,11.80
2023-02-09T15:34:07.495Z,13.50
2023-02-09T15:36:35.380Z,12.87
2023-02-09T15:39:05.135Z,13.00
2023-02-09T15:41:50.535Z,12.80
2023-02-09T15:44:37.320Z,13.07
2023-02-09T15:47:23.220Z,12.77
2023-02-09T15:49:51.365Z,13.90
2023-02-09T15:52:19.405Z,13.50
2023-02-09T15:54:49.845Z,14.10
2023-02-09T15:57:17.494Z,13.00
2023-02-09T15:59:46.370Z,13.30
2023-02-09T16:02:14.872Z,14.60
2023-02-09T16:04:42.522Z,15.47
2023-02-09T16:07:12.041Z,14.23
2023-02-09T16:09:40.848Z,13.67
2023-02-09T16:12:11.996Z,14.90
2023-02-09T16:14:39.911Z,14.20
2023-02-09T16:17:08.791Z,14.57
2023-02-09T16:19:36.509Z,14.57
2023-02-09T16:22:05.380Z,14.67
2023-02-09T16:24:43.191Z,14.43
2023-02-09T16:27:16.290Z,14.83
2023-02-09T16:29:44.117Z,14.33
2023-02-09T16:32:17.011Z,15.70
2023-02-09T16:34:44.720Z,14.23
2023-02-09T16:37:15.207Z,14.57
2023-02-09T16:39:43.501Z,15.67
2023-02-09T16:42:14.872Z,14.43
2023-02-09T16:44:43.035Z,16.97
2023-02-09T16:47:17.315Z,17.93
2023-02-09T16:49:49.723Z,52.53
2023-02-09T16:52:20.414Z,18.17
2023-02-09T16:54:50.080Z,16.33
2023-02-09T16:57:20.772Z,15.60
2023-02-09T16:59:48.423Z,16.23
2023-02-09T17:02:29.836Z,14.87
2023-02-09T17:04:58.006Z,15.93
2023-02-09T17:07:30.169Z,17.50
2023-02-09T17:09:59.903Z,15.27
2023-02-09T17:12:29.069Z,15.83
2023-02-09T17:14:56.824Z,16.63
2023-02-09T17:17:24.566Z,15.77
2023-02-09T17:19:52.893Z,16.33
2023-02-09T17:22:20.543Z,16.83
2023-02-09T17:24:48.493Z,15.50
2023-02-09T17:27:16.128Z,16.40
2023-02-09T17:29:45.216Z,16.33
2023-02-09T17:32:15.735Z,16.37
2023-02-09T17:34:43.749Z,15.97
2023-02-09T17:37:14.518Z,16.27
2023-02-09T17:39:42.238Z,16.90
2023-02-09T17:42:20.675Z,17.63
2023-02-09T17:44:50.811Z,17.33
2023-02-09T17:47:20.612Z,16.47
2023-02-09T17:49:48.445Z,18.50
2023-02-09T17:52:17.984Z,16.93
2023-02-09T17:54:46.499Z,17.70
2023-02-09T17:57:15.009Z,18.00
2023-02-09T17:59:42.820Z,17.80
2023-02-09T18:02:16.560Z,18.03
2023-02-09T18:04:44.266Z,17.10
2023-02-09T18:07:12.746Z,17.63
2023-02-09T18:09:40.394Z,17.30
2023-02-09T18:12:11.940Z,19.87
2023-02-09T18:14:40.010Z,17.97
2023-02-09T18:17:07.756Z,19.27
2023-02-09T18:19:36.893Z,19.70
2023-02-09T18:22:05.009Z,19.13
2023-02-09T18:24:34.137Z,19.63
2023-02-09T18:27:02.069Z,20.33
2023-02-09T18:29:30.224Z,19.17
2023-02-09T18:31:58.277Z,20.73
2023-02-09T18:34:26.109Z,18.27
2023-02-09T18:36:55.209Z,20.50
2023-02-09T18:39:22.922Z,18.90
2023-02-09T18:41:54.432Z,19.97
2023-02-09T18:44:24.377Z,19.40
2023-02-09T18:46:52.237Z,20.10
2023-02-09T18:49:19.962Z,19.90
2023-02-09T18:51:47.835Z,20.63
2023-02-09T18:54:16.938Z,21.10
2023-02-09T18:56:44.644Z,21.53
2023-02-09T18:59:12.415Z,20.13
2023-02-09T19:01:41.025Z,21.77
2023-02-09T19:04:08.963Z,21.87
2023-02-09T19:06:36.679Z,21.90
2023-02-09T19:09:04.542Z,20.87
2023-02-09T19:11:33.604Z,21.77
2023-02-09T19:14:18.852Z,20.30
2023-02-09T19:16:46.554Z,21.43
2023-02-09T19:19:16.071Z,21.73
2023-02-09T19:21:43.767Z,21.97
2023-02-09T19:24:11.440Z,22.73
2023-02-09T19:26:40.530Z,21.33
2023-02-09T19:29:08.217Z,20.63
2023-02-09T19:31:35.954Z,22.37
2023-02-09T19:34:03.704Z,22.20
2023-02-09T19:36:31.466Z,21.43
2023-02-09T19:39:00.214Z,21.70
2023-02-09T19:41:28.276Z,21.47
2023-02-09T19:43:57.918Z,22.93
2023-02-09T19:46:26.234Z,21.50
2023-02-09T19:48:54.634Z,22.40
2023-02-09T19:51:22.738Z,23.37
2023-02-09T19:53:50.861Z,22.67
2023-02-09T19:56:20.757Z,22.87
2023-02-09T19:58:48.455Z,22.63
2023-02-09T20:01:17.827Z,25.17
2023-02-09T20:03:45.525Z,24.03
2023-02-09T20:06:15.006Z,23.17
2023-02-09T20:08:42.920Z,23.10
2023-02-09T20:11:13.127Z,24.47
2023-02-09T20:13:40.905Z,23.40
2023-02-09T20:16:09.484Z,25.00
2023-02-09T20:18:40.119Z,25.17
2023-02-09T20:21:09.250Z,24.53
2023-02-09T20:23:37.364Z,25.33
2023-02-09T20:26:10.804Z,25.43
2023-02-09T20:28:38.891Z,25.07
2023-02-09T20:31:07.461Z,26.60
2023-02-09T20:33:35.649Z,25.90
2023-02-09T20:36:07.535Z,24.40
2023-02-09T20:38:36.477Z,25.30
2023-02-09T20:41:07.023Z,26.07
2023-02-09T20:43:51.942Z,27.40
2023-02-09T20:46:39.271Z,26.33
2023-02-09T20:49:07.359Z,28.43
2023-02-09T20:51:36.372Z,27.03
2023-02-09T20:54:04.740Z,28.17
2023-02-09T20:56:32.538Z,29.00
2023-02-09T20:59:00.319Z,29.47
2023-02-09T21:01:28.147Z,27.37
2023-02-09T21:03:56.878Z,29.07
2023-02-09T21:06:24.587Z,27.93
2023-02-09T21:08:54.169Z,29.27
2023-02-09T21:11:21.931Z,29.13
2023-02-09T21:13:49.668Z,29.47
2023-02-09T21:16:17.730Z,29.97
2023-02-09T21:18:45.849Z,30.93
2023-02-09T21:21:15.860Z,29.23
2023-02-09T21:23:43.752Z,30.47
2023-02-09T21:26:14.847Z,31.83
2023-02-09T21:28:43.691Z,31.50
2023-02-09T21:31:12.395Z,31.50
2023-02-09T21:33:40.043Z,32.37
2023-02-09T21:36:08.692Z,31.83
2023-02-09T21:38:41.374Z,32.10
2023-02-09T21:41:30.804Z,35.67
2023-02-09T21:44:00.261Z,35.03
2023-02-09T21:46:28.425Z,34.87
2023-02-09T21:48:56.296Z,35.20
2023-02-09T21:51:24.362Z,34.50
2023-02-09T21:53:52.531Z,34.70
2023-02-09T21:56:20.535Z,34.43
2023-02-09T21:58:48.198Z,35.50
2023-02-09T22:01:17.289Z,34.70
2023-02-09T22:03:48.905Z,35.60
2023-02-09T22:06:16.855Z,37.67
2023-02-09T22:08:44.624Z,38.10
2023-02-09T22:11:12.375Z,36.77
2023-02-09T22:13:40.148Z,39.27
2023-02-09T22:16:08.383Z,37.03
2023-02-09T22:18:37.791Z,37.53
2023-02-09T22:21:07.609Z,38.83
2023-02-09T22:23:35.357Z,41.70
2023-02-09T22:26:03.683Z,40.73
2023-02-09T22:28:31.459Z,39.67
2023-02-09T22:31:06.508Z,39.67
2023-02-09T22:33:34.415Z,43.20
2023-02-09T22:36:07.197Z,44.10
2023-02-09T22:38:35.079Z,43.57
2023-02-09T22:41:07.030Z,42.83
2023-02-09T22:43:34.842Z,43.70
2023-02-09T22:46:02.622Z,46.77
2023-02-09T22:48:30.287Z,45.43
2023-02-09T22:50:57.990Z,45.03
2023-02-09T22:53:27.484Z,45.47
2023-02-09T22:55:55.127Z,46.77
2023-02-09T22:58:22.823Z,45.47
2023-02-09T23:00:50.961Z,45.27
2023-02-09T23:03:18.606Z,46.30
2023-02-09T23:05:46.608Z,49.70
2023-02-09T23:08:14.428Z,48.37
2023-02-09T23:10:43.502Z,49.37
2023-02-09T23:13:11.259Z,48.53
2023-02-09T23:15:39.006Z,50.93
2023-02-09T23:18:06.818Z,48.43
2023-02-09T23:20:34.547Z,49.47
2023-02-09T23:23:06.503Z,49.97
2023-02-09T23:25:34.237Z,49.40
2023-02-09T23:28:03.475Z,47.17
2023-02-09T23:30:31.256Z,48.17
2023-02-09T23:32:58.944Z,48.73
2023-02-09T23:35:26.708Z,49.03
2023-02-09T23:37:54.364Z,48.53
2023-02-09T23:40:22.059Z,50.77
2023-02-09T23:42:50.123Z,50.37
2023-02-09T23:45:19.127Z,50.70
2023-02-09T23:47:46.877Z,50.53
2023-02-09T23:50:14.675Z,54.10
2023-02-09T23:52:42.340Z,50.87
2023-02-09T23:55:10.147Z,56.17
2023-02-09T23:57:37.816Z,51.10
